Aeroporto :
LOGIN :

Iscrizione | Disclaimer

   EN    FR    IT 

 










Sommario :    VFR   VFR Marginale   IFR   IFR Intensivo   IFR Molto Intensivo
Visibilità : 
Base nubi : 
>= 8 km
>= 3000ft
5 / 8 km
1000 / 3000 ft
1500m / 5 km
500 / 1000 ft
800 / 1500m
200 / 500 ft
< 800m
< 200 ft
Simboli :   Temporali  Nebbia  Neve Forte  Precipitazioni Forti  Vento > 20 kt
SIGMETs :   Varie  Temporali  Ghiacco  Turbolenza  Onda orograficha  Ceneri Vulcaniche







- Altitudine del aeroporto : 7 ft
- Codice IATA : XHE
- Carte del aeroporto


LFTH - Hyeres

ULTIMO METAR :
  • 210600Z AUTO 33003KT CAVOK 02/01 Q1027 NOSIG

METARs OBSOLETI :
  • 210530Z AUTO 33003KT CAVOK 03/02 Q1027 NOSIG
  • 210500Z AUTO VRB02KT CAVOK 03/02 Q1027 NOSIG
  • 210430Z AUTO VRB03KT CAVOK 04/02 Q1027 NOSIG
  • 210400Z AUTO VRB03KT CAVOK 04/03 Q1027 NOSIG
  • 210330Z AUTO 33004KT 310V030 CAVOK 04/03 Q1027 NOSIG

TAF TAF LFTH
Valido dal 21 a 03 ore il 22 a 03 ore UTC


210200Z 2103/2203 32006KT CAVOK
BECMG 2111/2112 24012KT
TEMPO 2112/2123 24018KT
Nessun NOTAM noto per questo aeroporto.



MetMap, La meteo Aeronautica in un colpo d'occhio ! - Copyright ORBIFLY Dicembre 2007 - Disclaimer

ORBIFLY MET'MAP TEAM :

Programmazione e sviluppo : Alexandra Zaïnal
Concezione e sviluppo : Baudouin d'Aumeries
Co-Programmazione e sviluppo : Marc-Olivier Méhu
Supporto tecnico e logistico : Manuel Goepfert
Aiuto per la traduzione : Arnaldo La Scala

Contatto : metmap@orbifly.com




FONTI E CREDITI :

   NOAA